sensor_id;sensor_type;location;lat;lon;timestamp;P1;durP1;ratioP1;P2;durP2;ratioP2
40573;SDS011;26283;49.020;8.644;2022-07-05T00:00:17;1.67;;;1.57;;
40573;SDS011;26283;49.020;8.644;2022-07-05T00:02:43;2.13;;;1.40;;
40573;SDS011;26283;49.020;8.644;2022-07-05T00:05:08;3.50;;;1.90;;
40573;SDS011;26283;49.020;8.644;2022-07-05T00:07:34;1.60;;;1.47;;
40573;SDS011;26283;49.020;8.644;2022-07-05T00:09:59;2.40;;;1.43;;
40573;SDS011;26283;49.020;8.644;2022-07-05T00:12:30;1.60;;;1.50;;
40573;SDS011;26283;49.020;8.644;2022-07-05T00:14:59;3.10;;;1.70;;
40573;SDS011;26283;49.020;8.644;2022-07-05T00:17:25;3.10;;;1.43;;
40573;SDS011;26283;49.020;8.644;2022-07-05T00:19:50;1.40;;;1.30;;
40573;SDS011;26283;49.020;8.644;2022-07-05T00:22:16;1.80;;;1.70;;
40573;SDS011;26283;49.020;8.644;2022-07-05T00:24:41;1.50;;;1.40;;
40573;SDS011;26283;49.020;8.644;2022-07-05T00:27:07;1.83;;;1.40;;
40573;SDS011;26283;49.020;8.644;2022-07-05T00:29:32;2.30;;;1.50;;
40573;SDS011;26283;49.020;8.644;2022-07-05T00:31:58;1.63;;;1.53;;
40573;SDS011;26283;49.020;8.644;2022-07-05T00:34:23;1.93;;;1.80;;
40573;SDS011;26283;49.020;8.644;2022-07-05T00:36:49;1.67;;;1.57;;
40573;SDS011;26283;49.020;8.644;2022-07-05T00:39:14;1.40;;;1.30;;
40573;SDS011;26283;49.020;8.644;2022-07-05T00:41:40;1.97;;;1.47;;
40573;SDS011;26283;49.020;8.644;2022-07-05T00:44:07;1.73;;;1.63;;
40573;SDS011;26283;49.020;8.644;2022-07-05T00:46:35;2.67;;;1.40;;
40573;SDS011;26283;49.020;8.644;2022-07-05T00:49:02;2.27;;;1.57;;
40573;SDS011;26283;49.020;8.644;2022-07-05T00:51:29;1.57;;;1.33;;
40573;SDS011;26283;49.020;8.644;2022-07-05T00:53:59;2.27;;;1.57;;
40573;SDS011;26283;49.020;8.644;2022-07-05T00:56:25;2.03;;;1.40;;
40573;SDS011;26283;49.020;8.644;2022-07-05T00:58:51;1.40;;;1.30;;
40573;SDS011;26283;49.020;8.644;2022-07-05T01:01:17;1.50;;;1.37;;
40573;SDS011;26283;49.020;8.644;2022-07-05T01:03:43;2.37;;;1.50;;
40573;SDS011;26283;49.020;8.644;2022-07-05T01:06:10;1.87;;;1.30;;
40573;SDS011;26283;49.020;8.644;2022-07-05T01:08:40;1.60;;;1.50;;
40573;SDS011;26283;49.020;8.644;2022-07-05T01:11:07;2.47;;;1.30;;
40573;SDS011;26283;49.020;8.644;2022-07-05T01:13:35;1.50;;;1.40;;
40573;SDS011;26283;49.020;8.644;2022-07-05T01:16:01;2.10;;;1.40;;
40573;SDS011;26283;49.020;8.644;2022-07-05T01:18:27;1.60;;;1.50;;
40573;SDS011;26283;49.020;8.644;2022-07-05T01:20:53;1.67;;;1.20;;
40573;SDS011;26283;49.020;8.644;2022-07-05T01:23:19;1.93;;;1.20;;
40573;SDS011;26283;49.020;8.644;2022-07-05T01:25:46;1.30;;;1.30;;
40573;SDS011;26283;49.020;8.644;2022-07-05T01:28:13;2.40;;;1.40;;
40573;SDS011;26283;49.020;8.644;2022-07-05T01:30:40;1.87;;;1.50;;
40573;SDS011;26283;49.020;8.644;2022-07-05T01:33:07;1.20;;;1.10;;
40573;SDS011;26283;49.020;8.644;2022-07-05T01:35:33;1.30;;;1.20;;
40573;SDS011;26283;49.020;8.644;2022-07-05T01:38:00;1.30;;;1.20;;
40573;SDS011;26283;49.020;8.644;2022-07-05T01:40:26;1.97;;;1.40;;
40573;SDS011;26283;49.020;8.644;2022-07-05T01:42:51;1.87;;;1.30;;
40573;SDS011;26283;49.020;8.644;2022-07-05T01:45:17;1.53;;;1.43;;
40573;SDS011;26283;49.020;8.644;2022-07-05T01:48:02;1.50;;;1.30;;
40573;SDS011;26283;49.020;8.644;2022-07-05T01:50:31;1.27;;;1.17;;
40573;SDS011;26283;49.020;8.644;2022-07-05T01:53:01;2.63;;;1.43;;
40573;SDS011;26283;49.020;8.644;2022-07-05T01:55:28;2.10;;;1.50;;
40573;SDS011;26283;49.020;8.644;2022-07-05T01:57:54;1.53;;;1.43;;
40573;SDS011;26283;49.020;8.644;2022-07-05T02:00:19;2.00;;;1.40;;
40573;SDS011;26283;49.020;8.644;2022-07-05T02:02:45;1.50;;;1.40;;
40573;SDS011;26283;49.020;8.644;2022-07-05T02:05:11;3.17;;;1.40;;
40573;SDS011;26283;49.020;8.644;2022-07-05T02:07:37;1.63;;;1.50;;
40573;SDS011;26283;49.020;8.644;2022-07-05T02:10:03;2.70;;;1.50;;
40573;SDS011;26283;49.020;8.644;2022-07-05T02:12:29;1.57;;;1.23;;
40573;SDS011;26283;49.020;8.644;2022-07-05T02:14:54;1.40;;;1.30;;
40573;SDS011;26283;49.020;8.644;2022-07-05T02:17:19;1.50;;;1.40;;
40573;SDS011;26283;49.020;8.644;2022-07-05T02:19:45;1.50;;;1.40;;
40573;SDS011;26283;49.020;8.644;2022-07-05T02:22:10;1.50;;;1.40;;
40573;SDS011;26283;49.020;8.644;2022-07-05T02:24:37;2.87;;;1.37;;
40573;SDS011;26283;49.020;8.644;2022-07-05T02:27:02;1.83;;;1.30;;
40573;SDS011;26283;49.020;8.644;2022-07-05T02:29:28;1.20;;;1.20;;
40573;SDS011;26283;49.020;8.644;2022-07-05T02:31:53;1.63;;;1.40;;
40573;SDS011;26283;49.020;8.644;2022-07-05T02:34:19;4.00;;;1.67;;
40573;SDS011;26283;49.020;8.644;2022-07-05T02:36:44;2.60;;;1.50;;
40573;SDS011;26283;49.020;8.644;2022-07-05T02:39:09;2.33;;;1.47;;
40573;SDS011;26283;49.020;8.644;2022-07-05T02:41:35;1.60;;;1.50;;
40573;SDS011;26283;49.020;8.644;2022-07-05T02:44:00;1.83;;;1.57;;
40573;SDS011;26283;49.020;8.644;2022-07-05T02:46:26;3.23;;;1.40;;
40573;SDS011;26283;49.020;8.644;2022-07-05T02:48:51;3.60;;;1.50;;
40573;SDS011;26283;49.020;8.644;2022-07-05T02:51:17;3.53;;;1.43;;
40573;SDS011;26283;49.020;8.644;2022-07-05T02:53:43;4.10;;;1.87;;
40573;SDS011;26283;49.020;8.644;2022-07-05T02:56:08;2.03;;;1.70;;
40573;SDS011;26283;49.020;8.644;2022-07-05T02:58:34;1.97;;;1.73;;
40573;SDS011;26283;49.020;8.644;2022-07-05T03:00:59;1.80;;;1.63;;
40573;SDS011;26283;49.020;8.644;2022-07-05T03:03:25;1.90;;;1.60;;
40573;SDS011;26283;49.020;8.644;2022-07-05T03:05:50;1.80;;;1.37;;
40573;SDS011;26283;49.020;8.644;2022-07-05T03:08:15;1.57;;;1.43;;
40573;SDS011;26283;49.020;8.644;2022-07-05T03:10:41;2.53;;;1.50;;
40573;SDS011;26283;49.020;8.644;2022-07-05T03:13:06;2.90;;;1.60;;
40573;SDS011;26283;49.020;8.644;2022-07-05T03:15:32;3.07;;;1.70;;
40573;SDS011;26283;49.020;8.644;2022-07-05T03:17:58;3.23;;;1.70;;
40573;SDS011;26283;49.020;8.644;2022-07-05T03:20:23;1.87;;;1.50;;
40573;SDS011;26283;49.020;8.644;2022-07-05T03:22:49;2.20;;;1.67;;
40573;SDS011;26283;49.020;8.644;2022-07-05T03:25:14;2.03;;;1.67;;
40573;SDS011;26283;49.020;8.644;2022-07-05T03:27:40;1.97;;;1.60;;
40573;SDS011;26283;49.020;8.644;2022-07-05T03:30:05;1.73;;;1.63;;
40573;SDS011;26283;49.020;8.644;2022-07-05T03:32:31;1.50;;;1.40;;
40573;SDS011;26283;49.020;8.644;2022-07-05T03:34:57;3.93;;;1.73;;
40573;SDS011;26283;49.020;8.644;2022-07-05T03:37:22;2.03;;;1.60;;
40573;SDS011;26283;49.020;8.644;2022-07-05T03:39:47;1.97;;;1.43;;
40573;SDS011;26283;49.020;8.644;2022-07-05T03:42:13;3.53;;;1.50;;
40573;SDS011;26283;49.020;8.644;2022-07-05T03:44:38;1.93;;;1.60;;
40573;SDS011;26283;49.020;8.644;2022-07-05T03:47:04;3.97;;;1.50;;
40573;SDS011;26283;49.020;8.644;2022-07-05T03:49:29;1.70;;;1.50;;
40573;SDS011;26283;49.020;8.644;2022-07-05T03:51:54;4.10;;;1.60;;
40573;SDS011;26283;49.020;8.644;2022-07-05T03:54:20;2.17;;;1.50;;
40573;SDS011;26283;49.020;8.644;2022-07-05T03:56:45;1.80;;;1.70;;
40573;SDS011;26283;49.020;8.644;2022-07-05T03:59:11;1.90;;;1.50;;
40573;SDS011;26283;49.020;8.644;2022-07-05T04:01:36;2.53;;;1.43;;
40573;SDS011;26283;49.020;8.644;2022-07-05T04:04:02;2.57;;;1.70;;
40573;SDS011;26283;49.020;8.644;2022-07-05T04:06:27;1.83;;;1.53;;
40573;SDS011;26283;49.020;8.644;2022-07-05T04:08:53;1.50;;;1.40;;
40573;SDS011;26283;49.020;8.644;2022-07-05T04:11:19;1.70;;;1.60;;
40573;SDS011;26283;49.020;8.644;2022-07-05T04:13:44;1.77;;;1.63;;
40573;SDS011;26283;49.020;8.644;2022-07-05T04:16:10;2.80;;;1.50;;
40573;SDS011;26283;49.020;8.644;2022-07-05T04:18:35;2.83;;;1.87;;
40573;SDS011;26283;49.020;8.644;2022-07-05T04:21:01;1.77;;;1.67;;
40573;SDS011;26283;49.020;8.644;2022-07-05T04:23:27;3.03;;;1.93;;
40573;SDS011;26283;49.020;8.644;2022-07-05T04:25:53;2.07;;;1.47;;
40573;SDS011;26283;49.020;8.644;2022-07-05T04:28:19;2.07;;;1.80;;
40573;SDS011;26283;49.020;8.644;2022-07-05T04:30:44;2.37;;;1.70;;
40573;SDS011;26283;49.020;8.644;2022-07-05T04:33:10;2.40;;;1.67;;
40573;SDS011;26283;49.020;8.644;2022-07-05T04:35:35;3.30;;;1.50;;
40573;SDS011;26283;49.020;8.644;2022-07-05T04:38:00;17.57;;;3.00;;
40573;SDS011;26283;49.020;8.644;2022-07-05T04:40:26;1.90;;;1.77;;
40573;SDS011;26283;49.020;8.644;2022-07-05T04:42:51;2.40;;;1.70;;
40573;SDS011;26283;49.020;8.644;2022-07-05T04:45:17;1.70;;;1.60;;
40573;SDS011;26283;49.020;8.644;2022-07-05T04:47:42;3.67;;;1.60;;
40573;SDS011;26283;49.020;8.644;2022-07-05T04:50:08;1.83;;;1.50;;
40573;SDS011;26283;49.020;8.644;2022-07-05T04:52:33;2.37;;;1.60;;
40573;SDS011;26283;49.020;8.644;2022-07-05T04:54:59;2.50;;;1.60;;
40573;SDS011;26283;49.020;8.644;2022-07-05T04:57:24;2.70;;;1.70;;
40573;SDS011;26283;49.020;8.644;2022-07-05T04:59:50;2.83;;;2.10;;
40573;SDS011;26283;49.020;8.644;2022-07-05T05:02:15;4.73;;;1.70;;
40573;SDS011;26283;49.020;8.644;2022-07-05T05:04:41;3.47;;;1.80;;
40573;SDS011;26283;49.020;8.644;2022-07-05T05:07:06;2.23;;;1.70;;
40573;SDS011;26283;49.020;8.644;2022-07-05T05:09:32;1.50;;;1.40;;
40573;SDS011;26283;49.020;8.644;2022-07-05T05:11:57;8.37;;;2.97;;
40573;SDS011;26283;49.020;8.644;2022-07-05T05:14:22;3.17;;;1.80;;
40573;SDS011;26283;49.020;8.644;2022-07-05T05:16:48;3.43;;;1.90;;
40573;SDS011;26283;49.020;8.644;2022-07-05T05:19:13;4.87;;;1.93;;
40573;SDS011;26283;49.020;8.644;2022-07-05T05:21:39;3.53;;;1.50;;
40573;SDS011;26283;49.020;8.644;2022-07-05T05:24:04;3.63;;;1.60;;
40573;SDS011;26283;49.020;8.644;2022-07-05T05:26:30;2.00;;;1.80;;
40573;SDS011;26283;49.020;8.644;2022-07-05T05:28:56;2.83;;;1.67;;
40573;SDS011;26283;49.020;8.644;2022-07-05T05:31:21;2.77;;;1.60;;
40573;SDS011;26283;49.020;8.644;2022-07-05T05:33:47;1.63;;;1.53;;
40573;SDS011;26283;49.020;8.644;2022-07-05T05:36:12;4.27;;;1.63;;
40573;SDS011;26283;49.020;8.644;2022-07-05T05:38:38;11.53;;;2.30;;
40573;SDS011;26283;49.020;8.644;2022-07-05T05:41:03;10.20;;;2.13;;
40573;SDS011;26283;49.020;8.644;2022-07-05T05:43:29;11.73;;;2.17;;
40573;SDS011;26283;49.020;8.644;2022-07-05T05:45:54;4.43;;;1.90;;
40573;SDS011;26283;49.020;8.644;2022-07-05T05:48:20;3.37;;;1.93;;
40573;SDS011;26283;49.020;8.644;2022-07-05T05:50:45;3.40;;;1.90;;
40573;SDS011;26283;49.020;8.644;2022-07-05T05:53:12;4.93;;;2.00;;
40573;SDS011;26283;49.020;8.644;2022-07-05T05:55:37;8.80;;;2.10;;
40573;SDS011;26283;49.020;8.644;2022-07-05T06:00:42;4.33;;;1.80;;
40573;SDS011;26283;49.020;8.644;2022-07-05T06:03:08;8.93;;;2.30;;
40573;SDS011;26283;49.020;8.644;2022-07-05T06:05:34;6.60;;;1.80;;
40573;SDS011;26283;49.020;8.644;2022-07-05T06:07:59;3.87;;;1.83;;
40573;SDS011;26283;49.020;8.644;2022-07-05T06:10:26;3.30;;;1.80;;
40573;SDS011;26283;49.020;8.644;2022-07-05T06:12:53;3.30;;;1.70;;
40573;SDS011;26283;49.020;8.644;2022-07-05T06:15:20;5.30;;;2.10;;
40573;SDS011;26283;49.020;8.644;2022-07-05T06:17:46;4.27;;;1.93;;
40573;SDS011;26283;49.020;8.644;2022-07-05T06:20:14;4.73;;;2.00;;
40573;SDS011;26283;49.020;8.644;2022-07-05T06:22:42;2.77;;;1.67;;
40573;SDS011;26283;49.020;8.644;2022-07-05T06:25:07;3.13;;;1.77;;
40573;SDS011;26283;49.020;8.644;2022-07-05T06:27:43;4.97;;;1.90;;
40573;SDS011;26283;49.020;8.644;2022-07-05T06:30:12;2.90;;;1.87;;
40573;SDS011;26283;49.020;8.644;2022-07-05T06:32:40;3.53;;;2.07;;
40573;SDS011;26283;49.020;8.644;2022-07-05T06:35:07;3.40;;;1.90;;
40573;SDS011;26283;49.020;8.644;2022-07-05T06:37:43;2.00;;;1.90;;
40573;SDS011;26283;49.020;8.644;2022-07-05T06:40:10;2.90;;;1.67;;
40573;SDS011;26283;49.020;8.644;2022-07-05T06:42:37;2.23;;;1.60;;
40573;SDS011;26283;49.020;8.644;2022-07-05T06:45:03;2.17;;;1.90;;
40573;SDS011;26283;49.020;8.644;2022-07-05T06:47:29;2.87;;;2.07;;
40573;SDS011;26283;49.020;8.644;2022-07-05T06:49:57;3.17;;;1.80;;
40573;SDS011;26283;49.020;8.644;2022-07-05T06:52:22;2.43;;;2.00;;
40573;SDS011;26283;49.020;8.644;2022-07-05T06:54:48;3.77;;;2.10;;
40573;SDS011;26283;49.020;8.644;2022-07-05T06:57:13;3.63;;;1.90;;
40573;SDS011;26283;49.020;8.644;2022-07-05T06:59:39;2.20;;;1.83;;
40573;SDS011;26283;49.020;8.644;2022-07-05T07:02:04;2.00;;;1.80;;
40573;SDS011;26283;49.020;8.644;2022-07-05T07:04:29;2.33;;;1.60;;
40573;SDS011;26283;49.020;8.644;2022-07-05T07:06:55;1.97;;;1.53;;
40573;SDS011;26283;49.020;8.644;2022-07-05T07:09:20;2.37;;;1.50;;
40573;SDS011;26283;49.020;8.644;2022-07-05T07:11:47;2.43;;;1.50;;
40573;SDS011;26283;49.020;8.644;2022-07-05T07:14:14;2.93;;;1.60;;
40573;SDS011;26283;49.020;8.644;2022-07-05T07:16:40;3.83;;;1.50;;
40573;SDS011;26283;49.020;8.644;2022-07-05T07:19:05;4.23;;;1.70;;
40573;SDS011;26283;49.020;8.644;2022-07-05T07:21:31;1.73;;;1.20;;
40573;SDS011;26283;49.020;8.644;2022-07-05T07:23:56;1.83;;;1.63;;
40573;SDS011;26283;49.020;8.644;2022-07-05T07:26:21;3.87;;;1.50;;
40573;SDS011;26283;49.020;8.644;2022-07-05T07:28:47;4.07;;;1.93;;
40573;SDS011;26283;49.020;8.644;2022-07-05T07:31:12;3.67;;;1.90;;
40573;SDS011;26283;49.020;8.644;2022-07-05T07:33:38;2.63;;;1.63;;
40573;SDS011;26283;49.020;8.644;2022-07-05T07:36:03;2.03;;;1.40;;
40573;SDS011;26283;49.020;8.644;2022-07-05T07:38:29;3.43;;;1.50;;
40573;SDS011;26283;49.020;8.644;2022-07-05T07:40:54;1.53;;;1.43;;
40573;SDS011;26283;49.020;8.644;2022-07-05T07:43:21;1.77;;;1.67;;
40573;SDS011;26283;49.020;8.644;2022-07-05T07:45:46;3.97;;;1.80;;
40573;SDS011;26283;49.020;8.644;2022-07-05T07:48:13;2.37;;;1.63;;
40573;SDS011;26283;49.020;8.644;2022-07-05T07:50:39;3.80;;;1.70;;
40573;SDS011;26283;49.020;8.644;2022-07-05T07:53:05;1.90;;;1.77;;
40573;SDS011;26283;49.020;8.644;2022-07-05T07:55:30;3.90;;;1.30;;
40573;SDS011;26283;49.020;8.644;2022-07-05T07:57:55;1.60;;;1.50;;
40573;SDS011;26283;49.020;8.644;2022-07-05T08:00:21;2.60;;;1.27;;
40573;SDS011;26283;49.020;8.644;2022-07-05T08:02:46;2.20;;;1.30;;
40573;SDS011;26283;49.020;8.644;2022-07-05T08:05:11;1.90;;;1.50;;
40573;SDS011;26283;49.020;8.644;2022-07-05T08:07:37;3.20;;;1.30;;
40573;SDS011;26283;49.020;8.644;2022-07-05T08:10:05;1.77;;;1.40;;
40573;SDS011;26283;49.020;8.644;2022-07-05T08:12:32;2.30;;;1.17;;
40573;SDS011;26283;49.020;8.644;2022-07-05T08:14:57;3.37;;;1.20;;
40573;SDS011;26283;49.020;8.644;2022-07-05T08:17:23;5.13;;;2.50;;
40573;SDS011;26283;49.020;8.644;2022-07-05T08:19:48;2.63;;;1.73;;
40573;SDS011;26283;49.020;8.644;2022-07-05T08:22:32;3.30;;;1.33;;
40573;SDS011;26283;49.020;8.644;2022-07-05T08:24:58;2.00;;;1.40;;
40573;SDS011;26283;49.020;8.644;2022-07-05T08:27:24;1.60;;;1.23;;
40573;SDS011;26283;49.020;8.644;2022-07-05T08:29:49;2.20;;;1.13;;
40573;SDS011;26283;49.020;8.644;2022-07-05T08:32:14;2.40;;;1.30;;
40573;SDS011;26283;49.020;8.644;2022-07-05T08:34:41;2.53;;;1.30;;
40573;SDS011;26283;49.020;8.644;2022-07-05T08:37:07;4.27;;;1.40;;
40573;SDS011;26283;49.020;8.644;2022-07-05T08:39:33;1.87;;;1.30;;
40573;SDS011;26283;49.020;8.644;2022-07-05T08:41:58;2.30;;;1.50;;
40573;SDS011;26283;49.020;8.644;2022-07-05T08:44:25;2.47;;;1.40;;
40573;SDS011;26283;49.020;8.644;2022-07-05T08:46:59;3.97;;;1.30;;
40573;SDS011;26283;49.020;8.644;2022-07-05T08:49:27;1.65;;;1.27;;
40573;SDS011;26283;49.020;8.644;2022-07-05T08:51:56;1.30;;;1.20;;
40573;SDS011;26283;49.020;8.644;2022-07-05T08:54:22;3.92;;;1.52;;
40573;SDS011;26283;49.020;8.644;2022-07-05T08:56:49;1.98;;;1.17;;
40573;SDS011;26283;49.020;8.644;2022-07-05T08:59:15;3.67;;;1.23;;
40573;SDS011;26283;49.020;8.644;2022-07-05T09:01:40;1.52;;;1.08;;
40573;SDS011;26283;49.020;8.644;2022-07-05T09:04:07;3.85;;;1.40;;
40573;SDS011;26283;49.020;8.644;2022-07-05T09:06:35;3.20;;;1.60;;
40573;SDS011;26283;49.020;8.644;2022-07-05T09:09:03;2.80;;;1.37;;
40573;SDS011;26283;49.020;8.644;2022-07-05T09:14:16;2.22;;;1.17;;
40573;SDS011;26283;49.020;8.644;2022-07-05T09:16:44;1.85;;;0.90;;
40573;SDS011;26283;49.020;8.644;2022-07-05T09:19:10;2.53;;;1.30;;
40573;SDS011;26283;49.020;8.644;2022-07-05T09:21:35;2.15;;;1.20;;
40573;SDS011;26283;49.020;8.644;2022-07-05T09:24:02;1.00;;;0.90;;
40573;SDS011;26283;49.020;8.644;2022-07-05T09:29:01;3.47;;;1.10;;
40573;SDS011;26283;49.020;8.644;2022-07-05T09:31:34;3.37;;;1.10;;
40573;SDS011;26283;49.020;8.644;2022-07-05T09:34:04;2.08;;;0.98;;
40573;SDS011;26283;49.020;8.644;2022-07-05T09:39:40;3.12;;;1.20;;
40573;SDS011;26283;49.020;8.644;2022-07-05T09:42:12;1.10;;;1.00;;
40573;SDS011;26283;49.020;8.644;2022-07-05T09:44:49;1.62;;;1.10;;
40573;SDS011;26283;49.020;8.644;2022-07-05T09:47:19;3.65;;;1.30;;
40573;SDS011;26283;49.020;8.644;2022-07-05T09:49:47;2.62;;;1.23;;
40573;SDS011;26283;49.020;8.644;2022-07-05T09:52:32;1.48;;;1.08;;
40573;SDS011;26283;49.020;8.644;2022-07-05T09:55:09;2.45;;;0.95;;
40573;SDS011;26283;49.020;8.644;2022-07-05T09:57:39;3.12;;;1.12;;
40573;SDS011;26283;49.020;8.644;2022-07-05T10:02:43;1.27;;;0.90;;
40573;SDS011;26283;49.020;8.644;2022-07-05T10:05:15;2.17;;;1.33;;
40573;SDS011;26283;49.020;8.644;2022-07-05T10:07:45;1.00;;;1.00;;
40573;SDS011;26283;49.020;8.644;2022-07-05T10:10:13;0.68;;;0.65;;
40573;SDS011;26283;49.020;8.644;2022-07-05T10:12:39;1.48;;;1.00;;
40573;SDS011;26283;49.020;8.644;2022-07-05T10:15:07;3.30;;;1.15;;
40573;SDS011;26283;49.020;8.644;2022-07-05T10:17:35;2.20;;;0.85;;
40573;SDS011;26283;49.020;8.644;2022-07-05T10:20:05;0.80;;;0.80;;
40573;SDS011;26283;49.020;8.644;2022-07-05T10:22:57;2.58;;;1.15;;
40573;SDS011;26283;49.020;8.644;2022-07-05T10:25:23;2.00;;;0.85;;
40573;SDS011;26283;49.020;8.644;2022-07-05T10:27:52;2.62;;;0.93;;
40573;SDS011;26283;49.020;8.644;2022-07-05T10:30:19;1.90;;;1.10;;
40573;SDS011;26283;49.020;8.644;2022-07-05T10:32:45;3.00;;;0.90;;
40573;SDS011;26283;49.020;8.644;2022-07-05T10:35:11;1.02;;;0.70;;
40573;SDS011;26283;49.020;8.644;2022-07-05T10:37:37;1.50;;;0.93;;
40573;SDS011;26283;49.020;8.644;2022-07-05T10:40:04;0.90;;;0.82;;
40573;SDS011;26283;49.020;8.644;2022-07-05T10:42:32;3.85;;;0.90;;
40573;SDS011;26283;49.020;8.644;2022-07-05T10:45:01;1.15;;;0.98;;
40573;SDS011;26283;49.020;8.644;2022-07-05T10:47:27;1.08;;;0.90;;
40573;SDS011;26283;49.020;8.644;2022-07-05T10:50:04;1.33;;;1.00;;
40573;SDS011;26283;49.020;8.644;2022-07-05T10:52:30;2.25;;;1.05;;
40573;SDS011;26283;49.020;8.644;2022-07-05T10:58:17;1.15;;;1.00;;
40573;SDS011;26283;49.020;8.644;2022-07-05T11:00:43;0.80;;;0.80;;
40573;SDS011;26283;49.020;8.644;2022-07-05T11:03:55;3.30;;;0.88;;
40573;SDS011;26283;49.020;8.644;2022-07-05T11:05:58;0.80;;;0.80;;
40573;SDS011;26283;49.020;8.644;2022-07-05T11:08:25;1.85;;;0.90;;
40573;SDS011;26283;49.020;8.644;2022-07-05T11:11:09;1.77;;;1.02;;
40573;SDS011;26283;49.020;8.644;2022-07-05T11:13:41;0.98;;;0.90;;
40573;SDS011;26283;49.020;8.644;2022-07-05T11:16:25;3.50;;;0.80;;
40573;SDS011;26283;49.020;8.644;2022-07-05T11:18:53;2.97;;;0.82;;
40573;SDS011;26283;49.020;8.644;2022-07-05T11:21:29;2.92;;;0.90;;
40573;SDS011;26283;49.020;8.644;2022-07-05T11:23:55;0.77;;;0.65;;
40573;SDS011;26283;49.020;8.644;2022-07-05T11:26:43;1.52;;;0.80;;
40573;SDS011;26283;49.020;8.644;2022-07-05T11:29:38;2.85;;;0.88;;
40573;SDS011;26283;49.020;8.644;2022-07-05T11:34:56;2.62;;;0.90;;
40573;SDS011;26283;49.020;8.644;2022-07-05T11:40:42;0.85;;;0.82;;
40573;SDS011;26283;49.020;8.644;2022-07-05T11:43:07;2.97;;;1.15;;
40573;SDS011;26283;49.020;8.644;2022-07-05T11:45:34;0.77;;;0.77;;
40573;SDS011;26283;49.020;8.644;2022-07-05T11:48:00;1.30;;;0.82;;
40573;SDS011;26283;49.020;8.644;2022-07-05T11:50:32;1.02;;;1.00;;
40573;SDS011;26283;49.020;8.644;2022-07-05T11:52:59;3.10;;;1.10;;
40573;SDS011;26283;49.020;8.644;2022-07-05T11:55:26;2.42;;;1.23;;
40573;SDS011;26283;49.020;8.644;2022-07-05T11:57:53;2.20;;;1.02;;
40573;SDS011;26283;49.020;8.644;2022-07-05T12:00:32;2.53;;;0.90;;
40573;SDS011;26283;49.020;8.644;2022-07-05T12:03:00;2.10;;;1.10;;
40573;SDS011;26283;49.020;8.644;2022-07-05T12:05:34;1.50;;;1.10;;
40573;SDS011;26283;49.020;8.644;2022-07-05T12:08:00;1.85;;;1.10;;
40573;SDS011;26283;49.020;8.644;2022-07-05T12:10:25;1.40;;;0.80;;
40573;SDS011;26283;49.020;8.644;2022-07-05T12:13:10;1.45;;;1.10;;
40573;SDS011;26283;49.020;8.644;2022-07-05T12:15:36;3.60;;;1.00;;
40573;SDS011;26283;49.020;8.644;2022-07-05T12:18:03;1.77;;;1.00;;
40573;SDS011;26283;49.020;8.644;2022-07-05T12:20:30;1.17;;;1.05;;
40573;SDS011;26283;49.020;8.644;2022-07-05T12:22:57;3.20;;;1.10;;
40573;SDS011;26283;49.020;8.644;2022-07-05T12:25:26;1.55;;;1.10;;
40573;SDS011;26283;49.020;8.644;2022-07-05T12:27:54;1.77;;;1.02;;
40573;SDS011;26283;49.020;8.644;2022-07-05T12:30:21;1.60;;;1.02;;
40573;SDS011;26283;49.020;8.644;2022-07-05T12:32:53;4.00;;;0.95;;
40573;SDS011;26283;49.020;8.644;2022-07-05T12:35:27;2.67;;;1.15;;
40573;SDS011;26283;49.020;8.644;2022-07-05T12:37:57;1.58;;;0.88;;
40573;SDS011;26283;49.020;8.644;2022-07-05T12:40:26;1.25;;;1.10;;
40573;SDS011;26283;49.020;8.644;2022-07-05T12:43:08;2.47;;;0.90;;
40573;SDS011;26283;49.020;8.644;2022-07-05T12:45:36;1.25;;;1.12;;
40573;SDS011;26283;49.020;8.644;2022-07-05T12:48:05;1.35;;;1.10;;
40573;SDS011;26283;49.020;8.644;2022-07-05T12:50:49;2.25;;;0.90;;
40573;SDS011;26283;49.020;8.644;2022-07-05T12:53:16;4.45;;;1.58;;
40573;SDS011;26283;49.020;8.644;2022-07-05T12:56:05;3.85;;;1.12;;
40573;SDS011;26283;49.020;8.644;2022-07-05T12:59:03;2.55;;;1.30;;
40573;SDS011;26283;49.020;8.644;2022-07-05T13:01:30;1.52;;;1.02;;
40573;SDS011;26283;49.020;8.644;2022-07-05T13:04:04;3.62;;;0.90;;
40573;SDS011;26283;49.020;8.644;2022-07-05T13:06:50;1.67;;;1.00;;
40573;SDS011;26283;49.020;8.644;2022-07-05T13:14:53;3.67;;;1.30;;
40573;SDS011;26283;49.020;8.644;2022-07-05T13:17:20;1.20;;;1.10;;
40573;SDS011;26283;49.020;8.644;2022-07-05T13:19:47;0.93;;;0.93;;
40573;SDS011;26283;49.020;8.644;2022-07-05T13:22:14;2.08;;;1.10;;
40573;SDS011;26283;49.020;8.644;2022-07-05T13:24:40;1.70;;;1.00;;
40573;SDS011;26283;49.020;8.644;2022-07-05T13:27:06;1.58;;;1.00;;
40573;SDS011;26283;49.020;8.644;2022-07-05T13:29:32;1.98;;;1.00;;
40573;SDS011;26283;49.020;8.644;2022-07-05T13:31:58;1.15;;;1.05;;
40573;SDS011;26283;49.020;8.644;2022-07-05T13:34:23;1.20;;;1.10;;
40573;SDS011;26283;49.020;8.644;2022-07-05T13:36:51;1.67;;;1.40;;
40573;SDS011;26283;49.020;8.644;2022-07-05T13:39:17;1.73;;;0.90;;
40573;SDS011;26283;49.020;8.644;2022-07-05T13:41:50;1.42;;;1.00;;
40573;SDS011;26283;49.020;8.644;2022-07-05T13:44:16;4.75;;;1.00;;
40573;SDS011;26283;49.020;8.644;2022-07-05T13:46:42;2.05;;;0.98;;
40573;SDS011;26283;49.020;8.644;2022-07-05T13:49:08;1.30;;;1.08;;
40573;SDS011;26283;49.020;8.644;2022-07-05T13:51:33;1.00;;;0.90;;
40573;SDS011;26283;49.020;8.644;2022-07-05T13:53:59;1.40;;;1.08;;
40573;SDS011;26283;49.020;8.644;2022-07-05T13:56:24;1.02;;;0.93;;
40573;SDS011;26283;49.020;8.644;2022-07-05T13:58:51;1.58;;;1.10;;
40573;SDS011;26283;49.020;8.644;2022-07-05T14:01:16;1.33;;;1.25;;
40573;SDS011;26283;49.020;8.644;2022-07-05T14:03:45;0.90;;;0.90;;
40573;SDS011;26283;49.020;8.644;2022-07-05T14:06:10;1.37;;;0.80;;
40573;SDS011;26283;49.020;8.644;2022-07-05T14:08:36;0.93;;;0.90;;
40573;SDS011;26283;49.020;8.644;2022-07-05T14:11:01;2.05;;;0.90;;
40573;SDS011;26283;49.020;8.644;2022-07-05T14:13:27;1.42;;;0.80;;
40573;SDS011;26283;49.020;8.644;2022-07-05T14:15:54;0.93;;;0.80;;
40573;SDS011;26283;49.020;8.644;2022-07-05T14:18:20;2.03;;;1.00;;
40573;SDS011;26283;49.020;8.644;2022-07-05T14:20:46;1.10;;;0.93;;
40573;SDS011;26283;49.020;8.644;2022-07-05T14:23:13;1.05;;;0.95;;
40573;SDS011;26283;49.020;8.644;2022-07-05T14:25:40;1.85;;;1.00;;
40573;SDS011;26283;49.020;8.644;2022-07-05T14:28:06;0.82;;;0.80;;
40573;SDS011;26283;49.020;8.644;2022-07-05T14:30:38;1.75;;;1.20;;
40573;SDS011;26283;49.020;8.644;2022-07-05T14:33:07;1.08;;;0.98;;
40573;SDS011;26283;49.020;8.644;2022-07-05T14:35:34;2.33;;;0.80;;
40573;SDS011;26283;49.020;8.644;2022-07-05T14:38:00;2.35;;;1.08;;
40573;SDS011;26283;49.020;8.644;2022-07-05T14:40:26;1.62;;;1.00;;
40573;SDS011;26283;49.020;8.644;2022-07-05T14:42:52;1.83;;;1.10;;
40573;SDS011;26283;49.020;8.644;2022-07-05T14:45:18;1.55;;;0.75;;
40573;SDS011;26283;49.020;8.644;2022-07-05T14:47:45;2.30;;;1.23;;
40573;SDS011;26283;49.020;8.644;2022-07-05T14:50:11;0.90;;;0.90;;
40573;SDS011;26283;49.020;8.644;2022-07-05T14:52:36;1.52;;;1.15;;
40573;SDS011;26283;49.020;8.644;2022-07-05T14:55:02;1.05;;;0.90;;
40573;SDS011;26283;49.020;8.644;2022-07-05T14:57:28;0.85;;;0.85;;
40573;SDS011;26283;49.020;8.644;2022-07-05T14:59:53;2.30;;;1.02;;
40573;SDS011;26283;49.020;8.644;2022-07-05T15:02:19;0.80;;;0.80;;
40573;SDS011;26283;49.020;8.644;2022-07-05T15:04:44;2.78;;;1.00;;
40573;SDS011;26283;49.020;8.644;2022-07-05T15:07:09;1.25;;;0.90;;
40573;SDS011;26283;49.020;8.644;2022-07-05T15:09:35;3.22;;;1.00;;
40573;SDS011;26283;49.020;8.644;2022-07-05T15:12:00;4.82;;;1.50;;
40573;SDS011;26283;49.020;8.644;2022-07-05T15:14:26;3.35;;;0.95;;
40573;SDS011;26283;49.020;8.644;2022-07-05T15:16:54;1.20;;;0.98;;